Time;durP1;ratioP1;P1;durP2;ratioP2;P2;SDS_P1;SDS_P2;PMS_P1;PMS_P2;Temp;Humidity;BMP_temperature;BMP_pressure;BME280_temperature;BME280_humidity;BME280_pressure;Samples;Min_cycle;Max_cycle;Signal;HPM_P1;HPM_P2
2022/07/07 00:00:23;;;;;;;5.65;5.15;;;16.30;99.90;;;;;;5108252;28;20620;-50
2022/07/07 00:02:51;;;;;;;5.75;5.15;;;16.30;99.90;;;;;;5101150;28;20220;-51
2022/07/07 00:05:20;;;;;;;5.88;5.43;;;16.20;99.90;;;;;;5112679;28;20204;-50
2022/07/07 00:07:49;;;;;;;7.45;4.70;;;16.20;99.90;;;;;;5084706;28;20212;-50
2022/07/07 00:10:17;;;;;;;4.47;3.88;;;16.20;99.90;;;;;;5112830;28;20616;-50
2022/07/07 00:12:45;;;;;;;3.83;3.53;;;16.20;99.90;;;;;;5112432;28;20684;-51
2022/07/07 00:15:13;;;;;;;5.00;4.20;;;16.20;99.90;;;;;;5113059;28;20204;-51
2022/07/07 00:17:41;;;;;;;4.63;3.72;;;16.20;99.90;;;;;;5111972;28;20661;-50
2022/07/07 00:20:10;;;;;;;4.30;3.90;;;16.20;99.90;;;;;;5113331;28;20248;-50
2022/07/07 00:22:38;;;;;;;4.30;3.95;;;16.20;99.90;;;;;;5112254;28;20223;-50
2022/07/07 00:25:09;;;;;;;6.18;3.90;;;16.20;99.90;;;;;;5107924;28;20204;-50
2022/07/07 00:27:37;;;;;;;6.00;4.00;;;16.20;99.90;;;;;;5108173;28;20275;-50
2022/07/07 00:30:07;;;;;;;4.00;3.70;;;16.20;99.90;;;;;;5112611;28;20196;-51
2022/07/07 00:32:35;;;;;;;4.68;4.28;;;16.20;99.90;;;;;;5111685;28;20231;-51
2022/07/07 00:35:03;;;;;;;4.80;4.32;;;16.20;99.90;;;;;;5112241;28;20269;-50
2022/07/07 00:37:31;;;;;;;5.03;4.63;;;16.20;99.90;;;;;;5104540;28;20201;-50
2022/07/07 00:39:59;;;;;;;4.70;4.28;;;16.10;99.90;;;;;;5090084;28;20211;-50
2022/07/07 00:42:28;;;;;;;5.90;5.20;;;16.10;99.90;;;;;;5103817;28;20223;-50
2022/07/07 00:44:56;;;;;;;5.93;5.32;;;16.10;99.90;;;;;;5112770;28;20203;-50
2022/07/07 00:47:25;;;;;;;5.60;5.10;;;16.00;99.90;;;;;;5112279;28;20269;-50
2022/07/07 00:49:55;;;;;;;4.95;4.60;;;16.00;99.90;;;;;;5112263;28;20272;-51
2022/07/07 00:52:23;;;;;;;5.53;4.88;;;16.00;99.90;;;;;;5111628;28;20264;-51
2022/07/07 00:54:52;;;;;;;5.45;4.90;;;16.00;99.90;;;;;;5111869;28;20259;-50
2022/07/07 00:57:21;;;;;;;5.00;4.50;;;16.00;99.90;;;;;;5112352;28;20208;-50
2022/07/07 01:00:00;;;;;;;5.05;4.65;;;16.00;99.90;;;;;;5109131;28;20264;-51
2022/07/07 01:02:29;;;;;;;5.90;4.85;;;16.00;99.90;;;;;;5104975;28;20288;-51
2022/07/07 01:05:00;;;;;;;5.07;4.65;;;16.00;99.90;;;;;;5111651;28;20210;-50
2022/07/07 01:07:28;;;;;;;6.78;4.93;;;16.00;99.90;;;;;;5111710;28;20845;-51
2022/07/07 01:09:58;;;;;;;6.35;4.28;;;16.00;99.90;;;;;;5100948;28;20204;-51
2022/07/07 01:12:26;;;;;;;5.22;4.72;;;16.00;99.90;;;;;;5111760;28;20276;-51
2022/07/07 01:14:54;;;;;;;5.35;4.85;;;16.00;99.90;;;;;;5111252;28;20204;-51
2022/07/07 01:17:24;;;;;;;5.78;4.30;;;15.90;99.90;;;;;;5111143;28;20663;-51
2022/07/07 01:19:52;;;;;;;6.78;4.72;;;16.00;99.90;;;;;;5111997;28;20204;-50
2022/07/07 01:22:24;;;;;;;6.13;4.63;;;16.00;99.90;;;;;;5111247;28;20284;-51
2022/07/07 01:24:53;;;;;;;5.35;4.50;;;16.00;99.90;;;;;;5111610;28;20680;-51
2022/07/07 01:27:22;;;;;;;4.70;4.13;;;16.10;99.90;;;;;;5111035;28;20199;-51
2022/07/07 01:29:51;;;;;;;4.40;3.90;;;16.10;99.90;;;;;;5111549;28;20207;-51
2022/07/07 01:32:20;;;;;;;5.35;3.80;;;16.10;99.90;;;;;;5110920;28;20235;-52
2022/07/07 01:34:49;;;;;;;5.28;3.83;;;16.00;99.90;;;;;;5111094;28;20260;-50
2022/07/07 01:37:20;;;;;;;4.32;3.70;;;16.10;99.90;;;;;;5111142;28;20215;-52
2022/07/07 01:39:49;;;;;;;4.55;3.75;;;16.10;99.90;;;;;;5110015;28;20256;-51
2022/07/07 01:42:19;;;;;;;4.13;3.70;;;16.10;99.90;;;;;;5110812;28;20227;-51
2022/07/07 01:44:50;;;;;;;4.57;3.85;;;16.10;99.90;;;;;;5110636;28;20260;-51
2022/07/07 01:47:20;;;;;;;4.10;3.70;;;16.10;99.90;;;;;;5111469;28;20211;-51
2022/07/07 01:49:48;;;;;;;5.03;3.88;;;16.10;99.90;;;;;;5082355;28;20807;-52
2022/07/07 01:52:16;;;;;;;4.13;3.70;;;16.10;99.90;;;;;;5110599;28;20281;-50
2022/07/07 01:54:45;;;;;;;5.95;3.65;;;16.20;99.90;;;;;;5110648;28;20231;-51
2022/07/07 01:57:13;;;;;;;4.05;3.47;;;16.20;99.90;;;;;;5110677;28;20208;-51
2022/07/07 01:59:42;;;;;;;4.15;3.67;;;16.20;99.90;;;;;;5110264;28;20203;-50
2022/07/07 02:02:12;;;;;;;4.30;3.90;;;16.20;99.90;;;;;;5106332;28;20300;-51
2022/07/07 02:04:41;;;;;;;4.60;3.85;;;16.20;99.90;;;;;;5110490;28;20204;-51
2022/07/07 02:07:09;;;;;;;5.05;3.90;;;16.20;99.90;;;;;;5110941;28;20265;-50
2022/07/07 02:09:37;;;;;;;4.20;3.80;;;16.20;99.90;;;;;;5104042;28;20270;-50
2022/07/07 02:12:06;;;;;;;5.93;3.63;;;16.20;99.90;;;;;;5111400;28;20697;-50
2022/07/07 02:14:34;;;;;;;3.80;3.50;;;16.30;99.90;;;;;;5110638;28;20223;-50
2022/07/07 02:17:04;;;;;;;5.38;3.42;;;16.30;99.90;;;;;;5110480;28;20248;-51
2022/07/07 02:19:32;;;;;;;4.15;3.63;;;16.30;99.90;;;;;;5110149;28;20261;-50
2022/07/07 02:22:00;;;;;;;3.97;3.58;;;16.20;99.90;;;;;;5110340;28;20223;-50
2022/07/07 02:24:28;;;;;;;4.53;3.78;;;16.30;99.90;;;;;;5110185;28;20203;-50
2022/07/07 02:26:56;;;;;;;5.25;3.83;;;16.30;99.90;;;;;;5110457;28;20260;-50
2022/07/07 02:29:24;;;;;;;4.32;3.42;;;16.30;99.90;;;;;;5110337;28;20269;-50
2022/07/07 02:31:52;;;;;;;9.15;3.72;;;16.30;99.90;;;;;;5109475;28;20231;-50
2022/07/07 02:34:22;;;;;;;5.10;4.00;;;16.30;99.90;;;;;;5110616;28;20224;-50
2022/07/07 02:36:50;;;;;;;4.35;3.95;;;16.20;99.90;;;;;;5109791;28;20245;-50
2022/07/07 02:39:18;;;;;;;3.95;3.30;;;16.20;99.90;;;;;;5109343;28;20257;-51
2022/07/07 02:41:46;;;;;;;7.50;3.78;;;16.30;99.90;;;;;;5109874;28;20654;-51
2022/07/07 02:44:14;;;;;;;4.07;3.35;;;16.30;99.90;;;;;;5109786;28;20253;-50
2022/07/07 02:46:42;;;;;;;5.05;3.38;;;16.30;99.90;;;;;;5105522;28;20677;-50
2022/07/07 02:49:10;;;;;;;3.67;3.20;;;16.20;99.90;;;;;;5107749;28;20210;-51
2022/07/07 02:51:40;;;;;;;5.28;2.83;;;16.30;99.90;;;;;;5109988;28;20268;-50
2022/07/07 02:54:08;;;;;;;4.07;3.13;;;16.30;99.90;;;;;;5109163;28;20223;-50
2022/07/07 02:56:36;;;;;;;4.82;3.08;;;16.30;99.90;;;;;;5109890;28;20284;-50
2022/07/07 02:59:04;;;;;;;4.80;3.45;;;16.20;99.90;;;;;;5109812;28;20204;-51
2022/07/07 03:01:33;;;;;;;5.18;3.00;;;16.20;99.90;;;;;;5105271;28;20223;-51
2022/07/07 03:04:01;;;;;;;7.13;3.65;;;16.20;99.90;;;;;;5109345;28;20207;-51
2022/07/07 03:06:29;;;;;;;4.88;3.20;;;16.20;99.90;;;;;;5109982;28;20207;-51
2022/07/07 03:08:58;;;;;;;4.07;3.03;;;16.20;99.90;;;;;;5109138;28;20204;-51
2022/07/07 03:11:26;;;;;;;4.00;3.10;;;16.20;99.90;;;;;;5109421;28;20635;-51
2022/07/07 03:13:54;;;;;;;3.97;3.00;;;16.20;99.90;;;;;;5109572;28;20242;-50
2022/07/07 03:16:22;;;;;;;5.47;3.80;;;16.20;99.90;;;;;;5109573;28;20261;-51
2022/07/07 03:18:51;;;;;;;7.55;4.07;;;16.20;99.90;;;;;;5109577;28;20294;-51
2022/07/07 03:21:19;;;;;;;5.90;3.53;;;16.20;99.90;;;;;;5109949;28;20261;-51
2022/07/07 03:23:47;;;;;;;6.22;3.63;;;16.20;99.90;;;;;;5109633;28;20212;-51
2022/07/07 03:26:16;;;;;;;3.70;3.33;;;16.10;99.90;;;;;;5109701;28;20237;-50
2022/07/07 03:28:44;;;;;;;5.50;3.20;;;16.20;99.90;;;;;;5111313;28;20725;-51
2022/07/07 03:31:12;;;;;;;6.60;3.33;;;16.10;99.90;;;;;;5113759;28;20199;-51
2022/07/07 03:33:40;;;;;;;4.57;3.28;;;16.10;99.90;;;;;;5113338;28;20948;-51
2022/07/07 03:36:09;;;;;;;4.75;3.53;;;16.10;99.90;;;;;;5114012;28;20260;-51
2022/07/07 03:38:37;;;;;;;6.70;3.35;;;16.10;99.90;;;;;;5112802;28;20273;-51
2022/07/07 03:41:05;;;;;;;5.13;3.78;;;16.00;99.90;;;;;;5113847;28;20736;-50
2022/07/07 03:43:34;;;;;;;5.53;3.33;;;16.00;99.90;;;;;;5112773;28;20231;-51
2022/07/07 03:46:02;;;;;;;5.22;3.53;;;16.00;99.90;;;;;;5106813;28;20620;-50
2022/07/07 03:48:31;;;;;;;4.15;3.30;;;16.00;99.90;;;;;;5099154;28;20554;-50
2022/07/07 03:50:59;;;;;;;4.15;2.95;;;16.00;99.90;;;;;;5113191;28;20851;-51
2022/07/07 03:53:27;;;;;;;4.05;3.72;;;16.00;99.90;;;;;;5113270;28;20263;-51
2022/07/07 03:55:56;;;;;;;5.20;3.85;;;16.00;99.90;;;;;;5113439;28;20611;-50
2022/07/07 03:58:24;;;;;;;5.68;3.53;;;16.00;99.90;;;;;;5113686;28;20208;-50
2022/07/07 04:00:53;;;;;;;8.82;4.07;;;15.90;99.90;;;;;;5110770;28;20211;-51
2022/07/07 04:03:21;;;;;;;5.13;3.55;;;15.90;99.90;;;;;;5111659;28;21030;-52
2022/07/07 04:05:49;;;;;;;4.72;3.70;;;15.90;99.90;;;;;;5112542;28;20289;-51
2022/07/07 04:08:17;;;;;;;4.28;3.67;;;15.90;99.90;;;;;;5112408;28;20260;-51
2022/07/07 04:10:45;;;;;;;4.93;3.85;;;15.90;99.90;;;;;;5112625;28;20217;-51
2022/07/07 04:13:13;;;;;;;6.15;4.18;;;15.90;99.90;;;;;;5112633;28;20223;-51
2022/07/07 04:15:42;;;;;;;5.03;3.88;;;15.90;99.90;;;;;;5113235;28;20231;-51
2022/07/07 04:18:12;;;;;;;4.00;3.60;;;15.80;99.90;;;;;;5112141;28;20211;-50
2022/07/07 04:20:40;;;;;;;5.80;3.58;;;15.90;99.90;;;;;;5113410;28;20295;-51
2022/07/07 04:23:08;;;;;;;5.97;4.00;;;15.90;99.90;;;;;;5112558;28;20308;-50
2022/07/07 04:25:36;;;;;;;4.75;4.00;;;15.90;99.90;;;;;;5099708;28;20732;-51
2022/07/07 04:28:04;;;;;;;4.90;3.80;;;15.90;99.90;;;;;;5112934;28;20288;-51
2022/07/07 04:30:32;;;;;;;6.03;3.80;;;15.90;99.90;;;;;;5112664;28;20199;-51
2022/07/07 04:33:00;;;;;;;5.68;4.40;;;15.90;99.90;;;;;;5112727;28;20224;-50
2022/07/07 04:35:30;;;;;;;7.47;4.13;;;15.90;99.90;;;;;;5111456;28;20597;-51
2022/07/07 04:37:58;;;;;;;4.53;4.00;;;15.90;99.90;;;;;;5112727;28;20269;-52
2022/07/07 04:40:26;;;;;;;5.03;4.25;;;15.90;99.90;;;;;;5111365;28;20558;-51
2022/07/07 04:42:54;;;;;;;7.60;4.30;;;15.90;99.90;;;;;;5112792;28;20569;-51
2022/07/07 04:45:28;;;;;;;7.22;4.57;;;15.90;99.90;;;;;;5112350;28;20203;-51
2022/07/07 04:47:56;;;;;;;5.50;4.68;;;15.80;99.90;;;;;;5111783;28;20195;-51
2022/07/07 04:50:24;;;;;;;9.20;5.10;;;15.80;99.90;;;;;;5112363;28;20668;-51
2022/07/07 04:52:54;;;;;;;5.57;4.70;;;15.90;99.90;;;;;;5112088;28;20711;-51
2022/07/07 04:55:22;;;;;;;6.25;4.47;;;15.90;99.90;;;;;;5112015;28;20284;-51
2022/07/07 04:57:50;;;;;;;5.93;4.95;;;15.90;99.90;;;;;;5111694;28;20203;-51
2022/07/07 05:00:18;;;;;;;7.28;5.05;;;15.90;99.90;;;;;;5112462;28;20269;-52
2022/07/07 05:02:46;;;;;;;9.85;4.90;;;15.90;99.90;;;;;;5074499;28;20770;-51
2022/07/07 05:05:14;;;;;;;6.00;5.00;;;15.90;99.90;;;;;;5090565;28;20219;-51
2022/07/07 05:07:42;;;;;;;5.30;4.53;;;15.80;99.90;;;;;;5091219;28;20204;-52
2022/07/07 05:10:12;;;;;;;6.20;4.93;;;15.90;99.90;;;;;;5084815;28;20213;-51
2022/07/07 05:12:40;;;;;;;8.80;5.35;;;15.90;99.90;;;;;;5091895;28;20228;-51
2022/07/07 05:15:08;;;;;;;9.43;5.60;;;15.90;99.90;;;;;;5090528;28;20745;-51
2022/07/07 05:17:37;;;;;;;6.55;5.18;;;15.90;99.90;;;;;;5091016;28;20216;-51
2022/07/07 05:20:06;;;;;;;5.88;5.35;;;15.90;99.90;;;;;;5090755;28;20204;-51
2022/07/07 05:22:34;;;;;;;7.55;5.57;;;15.90;99.90;;;;;;5079600;28;20292;-50
2022/07/07 05:25:02;;;;;;;6.40;5.22;;;15.90;99.90;;;;;;5090308;28;20266;-51
2022/07/07 05:27:32;;;;;;;6.75;5.82;;;15.90;99.90;;;;;;5090616;28;20665;-50
2022/07/07 05:30:00;;;;;;;7.53;5.53;;;15.90;99.90;;;;;;5090650;28;20286;-51
2022/07/07 05:32:28;;;;;;;6.35;5.80;;;15.90;99.90;;;;;;5090432;28;20305;-51
2022/07/07 05:34:56;;;;;;;7.43;6.07;;;15.90;99.90;;;;;;5090763;28;20273;-50
2022/07/07 05:37:25;;;;;;;6.95;6.00;;;15.90;99.90;;;;;;5090628;28;20524;-50
2022/07/07 05:39:53;;;;;;;10.68;6.50;;;16.00;99.90;;;;;;5078504;28;20201;-51
2022/07/07 05:42:21;;;;;;;8.07;6.78;;;16.00;99.90;;;;;;5076481;28;20228;-50
2022/07/07 05:44:50;;;;;;;7.50;5.85;;;16.00;99.90;;;;;;5078225;28;20253;-50
2022/07/07 05:47:18;;;;;;;11.60;6.65;;;16.00;99.90;;;;;;5089110;28;20216;-50
2022/07/07 05:49:46;;;;;;;7.38;6.30;;;15.90;99.90;;;;;;5096109;28;20204;-50
2022/07/07 05:52:14;;;;;;;8.38;6.80;;;15.90;99.90;;;;;;5110082;28;20223;-51
2022/07/07 05:54:43;;;;;;;8.30;7.40;;;16.00;99.90;;;;;;5106019;28;20269;-50
2022/07/07 05:57:11;;;;;;;8.38;7.05;;;15.90;99.90;;;;;;5100668;28;20204;-50
2022/07/07 05:59:39;;;;;;;8.70;6.70;;;16.00;99.90;;;;;;5110706;28;20211;-50
2022/07/07 06:02:08;;;;;;;12.30;7.40;;;16.00;99.90;;;;;;5106094;28;20223;-50
2022/07/07 06:04:36;;;;;;;7.90;6.47;;;16.00;99.90;;;;;;5083233;28;20228;-51
2022/07/07 06:07:05;;;;;;;8.57;6.70;;;16.00;99.90;;;;;;5089012;28;20200;-51
2022/07/07 06:09:33;;;;;;;7.05;6.35;;;16.00;99.90;;;;;;5100865;28;20265;-51
2022/07/07 06:12:01;;;;;;;7.40;6.65;;;16.00;99.90;;;;;;5089240;28;20882;-52
2022/07/07 06:14:29;;;;;;;8.98;5.80;;;16.00;99.90;;;;;;5090031;28;20734;-51
2022/07/07 06:16:58;;;;;;;6.85;5.63;;;16.10;99.90;;;;;;5089765;28;20313;-51
2022/07/07 06:19:27;;;;;;;7.28;6.22;;;16.10;99.90;;;;;;5090007;28;20216;-51
2022/07/07 06:21:56;;;;;;;6.53;5.85;;;16.10;99.90;;;;;;5089315;28;20285;-49
2022/07/07 06:24:24;;;;;;;6.50;5.90;;;16.10;99.90;;;;;;5089220;28;20211;-50
2022/07/07 06:26:52;;;;;;;8.20;6.10;;;16.00;99.90;;;;;;5089355;28;20208;-51
2022/07/07 06:29:20;;;;;;;7.78;5.93;;;16.10;99.90;;;;;;5089700;28;20243;-51
2022/07/07 06:31:48;;;;;;;8.73;5.72;;;16.10;99.90;;;;;;5089093;28;20228;-51
2022/07/07 06:34:16;;;;;;;6.15;5.40;;;16.10;99.90;;;;;;5089683;28;20208;-51
2022/07/07 06:36:46;;;;;;;6.07;5.15;;;16.10;99.90;;;;;;5089397;28;20224;-51
2022/07/07 06:39:14;;;;;;;6.88;6.18;;;16.10;99.90;;;;;;5089355;28;20204;-50
2022/07/07 06:41:42;;;;;;;5.75;5.18;;;16.20;99.90;;;;;;5090457;28;20971;-51
2022/07/07 06:44:11;;;;;;;8.27;5.82;;;16.20;99.90;;;;;;5090011;28;20636;-51
2022/07/07 06:46:43;;;;;;;7.72;5.80;;;16.20;99.90;;;;;;5090316;28;20615;-51
2022/07/07 06:49:12;;;;;;;7.82;6.40;;;16.20;99.90;;;;;;5089286;28;20212;-51
2022/07/07 06:51:41;;;;;;;7.80;5.80;;;16.20;99.90;;;;;;5109176;28;20227;-51
2022/07/07 06:54:10;;;;;;;7.93;6.45;;;16.30;99.90;;;;;;5092524;28;20204;-51
2022/07/07 06:56:38;;;;;;;7.97;6.43;;;16.30;99.90;;;;;;5089018;28;20277;-51
2022/07/07 06:59:06;;;;;;;7.70;6.20;;;16.40;99.90;;;;;;5089295;28;20661;-51
2022/07/07 07:01:34;;;;;;;9.30;6.50;;;16.50;99.90;;;;;;5088442;28;20224;-51
2022/07/07 07:04:02;;;;;;;8.88;6.40;;;16.60;99.90;;;;;;5089208;28;20257;-51
2022/07/07 07:06:31;;;;;;;8.23;6.68;;;16.70;99.90;;;;;;5089016;28;20204;-51
2022/07/07 07:08:59;;;;;;;8.35;7.55;;;16.80;99.90;;;;;;5088211;28;20282;-51
2022/07/07 07:11:29;;;;;;;10.77;7.22;;;16.90;99.90;;;;;;5087959;28;20265;-51
2022/07/07 07:13:58;;;;;;;10.73;7.20;;;17.10;99.90;;;;;;5088986;28;20242;-51
2022/07/07 07:16:26;;;;;;;8.88;7.25;;;17.10;99.90;;;;;;5088904;28;20232;-51
2022/07/07 07:18:55;;;;;;;10.05;7.75;;;17.10;99.90;;;;;;5075337;28;20673;-52
2022/07/07 07:21:23;;;;;;;9.32;8.45;;;17.20;99.90;;;;;;5089909;28;20208;-51
2022/07/07 07:23:51;;;;;;;9.60;7.63;;;17.50;99.90;;;;;;5105801;28;20209;-51
2022/07/07 07:26:19;;;;;;;10.93;7.70;;;17.80;99.90;;;;;;5100241;28;20669;-51
2022/07/07 07:28:49;;;;;;;8.43;7.53;;;17.90;99.90;;;;;;5109196;28;20257;-51
2022/07/07 07:31:17;;;;;;;8.80;7.43;;;17.80;99.90;;;;;;5109394;28;20245;-51
2022/07/07 07:33:47;;;;;;;8.88;7.85;;;17.60;99.90;;;;;;5108155;28;20672;-51
2022/07/07 07:36:15;;;;;;;10.65;8.25;;;17.50;99.90;;;;;;5109466;28;20289;-51
2022/07/07 07:38:44;;;;;;;12.75;8.32;;;17.40;99.90;;;;;;5107473;28;20231;-51
2022/07/07 07:41:13;;;;;;;9.27;8.13;;;17.40;99.90;;;;;;5109489;28;20234;-51
2022/07/07 07:43:41;;;;;;;12.05;10.95;;;17.30;99.90;;;;;;5108869;28;20232;-51
2022/07/07 07:46:10;;;;;;;12.70;11.40;;;17.30;99.90;;;;;;5108405;28;20226;-51
2022/07/07 07:48:39;;;;;;;15.82;13.30;;;17.40;99.90;;;;;;5108791;28;20775;-51
2022/07/07 07:51:07;;;;;;;14.45;12.88;;;17.40;99.90;;;;;;5108607;28;20591;-51
2022/07/07 07:53:35;;;;;;;13.65;12.25;;;17.40;99.90;;;;;;5108881;28;20227;-51
2022/07/07 07:56:03;;;;;;;13.88;12.48;;;17.40;99.90;;;;;;5108925;28;20281;-51
2022/07/07 07:58:31;;;;;;;13.32;11.82;;;17.40;99.90;;;;;;5108838;28;20203;-50
2022/07/07 08:00:59;;;;;;;13.52;12.15;;;17.40;99.90;;;;;;5105645;28;20213;-51
2022/07/07 08:03:29;;;;;;;14.45;12.90;;;17.40;99.90;;;;;;5108312;28;20231;-51
2022/07/07 08:05:58;;;;;;;14.90;13.60;;;17.50;99.90;;;;;;5109422;28;20211;-51
2022/07/07 08:08:26;;;;;;;17.10;15.25;;;17.50;99.90;;;;;;5108454;28;20208;-51
2022/07/07 08:10:54;;;;;;;16.02;14.63;;;17.40;99.90;;;;;;5108694;28;20581;-51
2022/07/07 08:13:22;;;;;;;17.45;15.85;;;17.40;99.90;;;;;;5089588;28;20242;-51
2022/07/07 08:15:51;;;;;;;14.68;13.23;;;17.60;99.90;;;;;;5093353;28;20257;-51
2022/07/07 08:18:19;;;;;;;15.98;14.40;;;17.70;99.90;;;;;;5092278;28;20219;-50
2022/07/07 08:20:48;;;;;;;15.27;13.82;;;18.00;99.90;;;;;;5092115;28;20208;-52
2022/07/07 08:23:16;;;;;;;17.38;15.88;;;18.30;99.90;;;;;;5091753;28;20762;-51
2022/07/07 08:25:44;;;;;;;15.63;14.15;;;18.70;99.90;;;;;;5091501;28;20208;-51
2022/07/07 08:28:13;;;;;;;13.75;12.43;;;19.40;99.90;;;;;;5092746;28;20211;-50
2022/07/07 08:30:41;;;;;;;10.43;9.52;;;19.20;99.90;;;;;;5092162;28;20755;-51
2022/07/07 08:33:09;;;;;;;12.68;11.45;;;19.10;99.90;;;;;;5091490;28;20281;-51
2022/07/07 08:35:37;;;;;;;9.77;8.88;;;18.90;99.90;;;;;;5092116;28;20208;-50
2022/07/07 08:38:06;;;;;;;9.95;9.05;;;18.80;99.90;;;;;;5091210;28;20221;-51
2022/07/07 08:40:35;;;;;;;7.22;6.53;;;18.70;99.90;;;;;;5090944;28;20731;-51
2022/07/07 08:43:03;;;;;;;7.32;6.63;;;18.60;99.90;;;;;;5091444;28;20228;-51
2022/07/07 08:45:31;;;;;;;6.93;6.28;;;18.60;99.90;;;;;;5091867;28;20692;-51
2022/07/07 08:51:04;;;;;;;8.50;7.57;;;18.70;99.90;;;;;;5107366;28;20237;-50
2022/07/07 08:53:36;;;;;;;8.23;7.47;;;19.10;99.90;;;;;;5111798;28;20227;-51
2022/07/07 08:56:06;;;;;;;7.45;6.75;;;19.40;99.90;;;;;;5111365;28;20211;-51
2022/07/07 08:58:36;;;;;;;7.90;7.30;;;19.60;99.90;;;;;;5111844;28;20207;-50
2022/07/07 09:01:24;;;;;;;6.68;5.72;;;19.80;99.90;;;;;;5107523;28;20295;-51
2022/07/07 09:03:52;;;;;;;7.80;7.10;;;20.10;99.90;;;;;;5112195;28;20325;-51
2022/07/07 09:06:21;;;;;;;6.10;5.60;;;20.10;99.90;;;;;;5111462;28;20252;-51
2022/07/07 09:08:54;;;;;;;5.75;5.35;;;20.10;99.90;;;;;;5111242;28;20235;-51
2022/07/07 09:11:26;;;;;;;6.47;5.75;;;20.10;99.90;;;;;;5112234;28;20207;-51
2022/07/07 09:14:09;;;;;;;4.75;4.35;;;20.00;99.90;;;;;;5105048;28;20204;-50
2022/07/07 09:16:37;;;;;;;3.50;3.20;;;19.90;99.90;;;;;;5094334;28;20213;-51
2022/07/07 09:19:09;;;;;;;2.67;2.20;;;19.80;99.90;;;;;;5075286;28;20301;-51
2022/07/07 09:21:37;;;;;;;2.22;2.00;;;20.00;99.90;;;;;;5081859;28;20228;-51
2022/07/07 09:24:07;;;;;;;1.65;1.55;;;20.00;99.90;;;;;;5089058;28;20661;-51
2022/07/07 09:26:37;;;;;;;1.83;1.73;;;19.90;99.90;;;;;;5085992;28;20212;-51
2022/07/07 09:29:05;;;;;;;2.00;1.77;;;19.90;99.90;;;;;;5082470;28;20624;-51
2022/07/07 09:31:54;;;;;;;2.00;1.90;;;20.00;99.90;;;;;;5090214;28;20440;-51
2022/07/07 09:34:25;;;;;;;1.90;1.80;;;19.90;99.90;;;;;;5091460;28;20235;-52
2022/07/07 09:39:43;;;;;;;2.53;2.25;;;19.10;99.90;;;;;;5092951;28;20208;-51
2022/07/07 09:42:33;;;;;;;2.10;2.00;;;18.80;99.90;;;;;;5090403;28;20220;-51
2022/07/07 09:45:04;;;;;;;2.17;1.80;;;18.70;99.90;;;;;;5090822;28;20208;-51
2022/07/07 09:47:33;;;;;;;1.60;1.50;;;18.70;99.90;;;;;;5081572;28;20261;-51
2022/07/07 09:50:09;;;;;;;1.15;1.08;;;18.70;99.90;;;;;;5090416;28;20667;-51
2022/07/07 09:52:39;;;;;;;0.95;0.95;;;18.80;99.90;;;;;;5110905;28;20227;-51
2022/07/07 09:55:11;;;;;;;1.13;1.02;;;18.80;99.90;;;;;;5102806;28;20208;-51
2022/07/07 09:57:40;;;;;;;1.33;1.17;;;18.90;99.90;;;;;;5105012;28;20297;-50
2022/07/07 10:00:09;;;;;;;1.00;1.00;;;19.00;99.90;;;;;;5083426;28;20215;-51
2022/07/07 10:02:39;;;;;;;1.20;1.10;;;19.30;99.90;;;;;;5105930;28;20315;-51
2022/07/07 10:05:07;;;;;;;0.63;0.57;;;19.50;99.90;;;;;;5111088;28;20280;-51
2022/07/07 10:07:37;;;;;;;0.50;0.50;;;19.70;99.90;;;;;;5098665;28;20208;-51
2022/07/07 10:10:10;;;;;;;1.10;0.50;;;20.00;99.90;;;;;;5106553;28;20242;-51
2022/07/07 10:12:44;;;;;;;0.55;0.40;;;20.10;99.90;;;;;;5109839;28;20227;-51
2022/07/07 10:15:12;;;;;;;0.68;0.40;;;20.50;99.90;;;;;;5105798;28;20261;-51
2022/07/07 10:17:42;;;;;;;0.73;0.40;;;20.60;99.90;;;;;;5100478;28;20234;-51
2022/07/07 10:20:11;;;;;;;0.65;0.47;;;20.40;99.90;;;;;;5110226;28;20222;-52
2022/07/07 10:22:41;;;;;;;0.30;0.30;;;20.30;99.90;;;;;;5109311;28;20761;-52
2022/07/07 10:25:11;;;;;;;1.25;0.50;;;20.40;99.90;;;;;;5096743;28;20681;-51
2022/07/07 10:27:42;;;;;;;2.17;0.70;;;20.50;99.90;;;;;;5110193;28;20200;-52
2022/07/07 10:30:27;;;;;;;0.55;0.50;;;20.70;99.90;;;;;;5109375;28;20279;-51
2022/07/07 10:32:57;;;;;;;1.17;0.70;;;20.70;99.90;;;;;;5109939;28;20231;-50
2022/07/07 10:35:27;;;;;;;0.98;0.50;;;20.80;99.90;;;;;;5109469;28;20267;-51
2022/07/07 10:37:57;;;;;;;1.35;0.60;;;20.90;99.90;;;;;;5107809;28;21006;-51
2022/07/07 10:40:28;;;;;;;1.30;0.60;;;20.60;99.90;;;;;;5109371;28;20220;-51
2022/07/07 10:43:23;;;;;;;0.50;0.50;;;20.70;99.90;;;;;;5109271;28;20220;-51
2022/07/07 10:45:55;;;;;;;0.90;0.60;;;21.00;99.90;;;;;;5091668;28;20294;-51
2022/07/07 10:48:42;;;;;;;1.23;0.70;;;21.00;99.90;;;;;;5092195;28;20352;-51
2022/07/07 10:51:21;;;;;;;0.75;0.55;;;21.00;99.90;;;;;;5108119;28;20583;-51
2022/07/07 10:53:58;;;;;;;2.90;0.80;;;20.80;99.90;;;;;;5098666;28;20203;-51
2022/07/07 10:56:27;;;;;;;1.75;1.13;;;20.60;99.90;;;;;;5109345;28;20229;-51
2022/07/07 10:59:00;;;;;;;1.65;1.00;;;20.30;99.90;;;;;;5109244;28;20965;-51
2022/07/07 11:01:30;;;;;;;1.45;1.05;;;20.30;99.90;;;;;;5105416;28;20252;-51
2022/07/07 11:03:58;;;;;;;2.67;1.35;;;20.20;99.90;;;;;;5109076;28;20219;-51
2022/07/07 11:06:26;;;;;;;2.33;1.20;;;20.10;99.90;;;;;;5108941;28;20586;-52
2022/07/07 11:09:00;;;;;;;3.25;1.15;;;20.30;99.90;;;;;;5088956;28;20258;-51
2022/07/07 11:11:30;;;;;;;2.00;1.13;;;20.60;99.90;;;;;;5088280;28;20258;-51
2022/07/07 11:14:07;;;;;;;1.10;0.82;;;20.60;99.90;;;;;;5088157;28;20200;-51
2022/07/07 11:16:36;;;;;;;1.58;1.13;;;20.60;99.90;;;;;;5086302;28;20204;-51
2022/07/07 11:19:06;;;;;;;3.47;1.17;;;20.70;99.90;;;;;;5105459;28;20227;-51
2022/07/07 11:21:36;;;;;;;3.83;1.70;;;20.70;99.90;;;;;;5108453;28;20780;-51
2022/07/07 11:24:15;;;;;;;2.13;1.27;;;21.00;99.90;;;;;;5105057;28;20200;-51
2022/07/07 11:26:55;;;;;;;1.65;1.20;;;20.80;99.90;;;;;;5085569;28;20860;-51
2022/07/07 11:29:23;;;;;;;3.25;1.17;;;20.50;99.90;;;;;;5086051;28;20200;-51
2022/07/07 11:32:00;;;;;;;1.27;1.15;;;20.40;99.90;;;;;;5089057;28;20232;-51
2022/07/07 11:34:40;;;;;;;2.95;1.48;;;20.20;99.90;;;;;;5094158;28;20242;-51
2022/07/07 11:37:19;;;;;;;2.95;1.58;;;20.40;99.90;;;;;;5089204;28;20665;-52
2022/07/07 11:39:47;;;;;;;3.97;1.25;;;20.40;99.90;;;;;;5087967;28;20223;-52
2022/07/07 11:42:17;;;;;;;2.50;1.38;;;20.40;99.90;;;;;;5088564;28;20277;-51
2022/07/07 11:44:45;;;;;;;2.63;1.50;;;20.20;99.90;;;;;;5088502;28;20208;-51
2022/07/07 11:47:13;;;;;;;3.95;1.35;;;20.20;99.90;;;;;;5088669;28;20204;-51
2022/07/07 11:49:41;;;;;;;3.90;1.60;;;20.40;99.90;;;;;;5094343;28;20276;-51
2022/07/07 11:52:12;;;;;;;7.20;1.38;;;20.70;99.90;;;;;;5103158;28;20762;-52
2022/07/07 11:54:47;;;;;;;2.40;1.20;;;20.80;99.90;;;;;;5109939;28;20199;-51
2022/07/07 11:57:28;;;;;;;2.70;1.10;;;21.00;99.90;;;;;;5113076;28;20634;-50
2022/07/07 12:00:12;;;;;;;3.72;1.20;;;21.20;99.90;;;;;;5112374;28;20752;-51
2022/07/07 12:02:41;;;;;;;3.75;1.23;;;21.00;99.90;;;;;;5108276;28;20280;-51
2022/07/07 12:05:11;;;;;;;2.33;1.05;;;21.00;99.90;;;;;;5093541;28;20204;-52
2022/07/07 12:07:39;;;;;;;1.48;0.95;;;21.00;99.90;;;;;;5092357;28;20200;-51
2022/07/07 12:10:20;;;;;;;3.50;1.10;;;21.20;99.90;;;;;;5097232;28;20665;-51
2022/07/07 12:13:05;;;;;;;0.85;0.70;;;21.50;99.90;;;;;;5080831;28;20236;-51
2022/07/07 12:15:35;;;;;;;2.42;1.00;;;21.70;99.90;;;;;;5088815;28;20212;-52
2022/07/07 12:18:04;;;;;;;3.92;1.10;;;21.80;99.90;;;;;;5091301;28;20266;-51
2022/07/07 12:20:33;;;;;;;3.00;1.33;;;22.00;99.90;;;;;;5091928;28;20212;-51
2022/07/07 12:23:06;;;;;;;4.10;1.27;;;21.80;99.90;;;;;;5091466;28;20228;-51
2022/07/07 12:25:35;;;;;;;3.40;1.70;;;21.60;99.90;;;;;;5091054;28;20290;-51
2022/07/07 12:28:11;;;;;;;3.45;1.60;;;21.20;99.90;;;;;;5091783;28;20191;-51
2022/07/07 12:30:51;;;;;;;6.43;1.50;;;20.90;99.90;;;;;;5092301;28;20250;-51
2022/07/07 12:33:27;;;;;;;4.03;2.60;;;20.60;99.90;;;;;;5090716;28;20877;-51
2022/07/07 12:35:59;;;;;;;2.67;1.60;;;20.60;99.90;;;;;;5091771;28;20215;-50
2022/07/07 12:38:39;;;;;;;2.35;1.50;;;20.70;99.90;;;;;;5090628;28;20273;-51
2022/07/07 12:41:08;;;;;;;7.65;1.58;;;20.80;99.90;;;;;;5091338;28;20204;-51
2022/07/07 12:43:38;;;;;;;3.38;1.63;;;20.80;99.90;;;;;;5090114;28;20216;-51
2022/07/07 12:46:11;;;;;;;2.92;1.27;;;21.00;99.90;;;;;;5091414;28;20228;-51
2022/07/07 12:48:50;;;;;;;3.45;1.55;;;21.10;99.90;;;;;;5101233;28;20278;-51
2022/07/07 12:51:25;;;;;;;4.85;1.30;;;21.30;99.90;;;;;;5077804;28;20207;-51
2022/07/07 12:53:53;;;;;;;3.22;1.10;;;21.50;99.90;;;;;;5086483;28;20239;-50
2022/07/07 12:56:22;;;;;;;3.05;1.15;;;21.60;99.90;;;;;;5085242;28;20254;-51
2022/07/07 12:58:53;;;;;;;3.60;1.58;;;21.70;99.90;;;;;;5091380;28;20220;-51
2022/07/07 13:01:24;;;;;;;2.78;1.30;;;21.70;99.90;;;;;;5085266;28;20253;-52
2022/07/07 13:03:53;;;;;;;2.65;1.60;;;21.80;99.90;;;;;;5084255;28;20196;-51